sensor_id;sensor_type;location;lat;lon;timestamp;P1;durP1;ratioP1;P2;durP2;ratioP2
38266;SDS011;24063;51.794;19.578;2022-11-20T00:00:45;44.32;;;42.55;;
38266;SDS011;24063;51.794;19.578;2022-11-20T00:01:51;45.19;;;43.50;;
38266;SDS011;24063;51.794;19.578;2022-11-20T00:02:53;46.29;;;44.89;;
38266;SDS011;24063;51.794;19.578;2022-11-20T00:03:55;45.65;;;43.79;;
38266;SDS011;24063;51.794;19.578;2022-11-20T00:04:59;45.45;;;44.05;;
38266;SDS011;24063;51.794;19.578;2022-11-20T00:06:01;44.75;;;43.50;;
38266;SDS011;24063;51.794;19.578;2022-11-20T00:07:07;45.68;;;44.34;;
38266;SDS011;24063;51.794;19.578;2022-11-20T00:08:09;45.78;;;44.21;;
38266;SDS011;24063;51.794;19.578;2022-11-20T00:09:11;43.63;;;42.30;;
38266;SDS011;24063;51.794;19.578;2022-11-20T00:10:13;45.79;;;44.63;;
38266;SDS011;24063;51.794;19.578;2022-11-20T00:11:16;45.42;;;44.31;;
38266;SDS011;24063;51.794;19.578;2022-11-20T00:12:21;45.04;;;43.37;;
38266;SDS011;24063;51.794;19.578;2022-11-20T00:13:22;47.07;;;45.21;;
38266;SDS011;24063;51.794;19.578;2022-11-20T00:14:24;45.18;;;43.56;;
38266;SDS011;24063;51.794;19.578;2022-11-20T00:15:26;45.58;;;43.90;;
38266;SDS011;24063;51.794;19.578;2022-11-20T00:16:29;47.47;;;45.66;;
38266;SDS011;24063;51.794;19.578;2022-11-20T00:17:33;47.76;;;46.19;;
38266;SDS011;24063;51.794;19.578;2022-11-20T00:18:35;47.06;;;45.78;;
38266;SDS011;24063;51.794;19.578;2022-11-20T00:19:37;46.02;;;44.96;;
38266;SDS011;24063;51.794;19.578;2022-11-20T00:20:39;45.46;;;44.51;;
38266;SDS011;24063;51.794;19.578;2022-11-20T00:21:41;48.23;;;46.89;;
38266;SDS011;24063;51.794;19.578;2022-11-20T00:22:42;49.31;;;47.75;;
38266;SDS011;24063;51.794;19.578;2022-11-20T00:23:44;47.97;;;46.23;;
38266;SDS011;24063;51.794;19.578;2022-11-20T00:24:47;47.86;;;46.31;;
38266;SDS011;24063;51.794;19.578;2022-11-20T00:25:48;48.53;;;46.52;;
38266;SDS011;24063;51.794;19.578;2022-11-20T00:26:50;47.90;;;46.29;;
38266;SDS011;24063;51.794;19.578;2022-11-20T00:27:52;46.95;;;45.51;;
38266;SDS011;24063;51.794;19.578;2022-11-20T00:28:56;47.71;;;46.46;;
38266;SDS011;24063;51.794;19.578;2022-11-20T00:30:03;48.31;;;47.14;;
38266;SDS011;24063;51.794;19.578;2022-11-20T00:31:07;47.50;;;46.05;;
38266;SDS011;24063;51.794;19.578;2022-11-20T00:32:14;50.31;;;48.13;;
38266;SDS011;24063;51.794;19.578;2022-11-20T00:33:16;50.00;;;48.20;;
38266;SDS011;24063;51.794;19.578;2022-11-20T00:34:18;48.44;;;46.68;;
38266;SDS011;24063;51.794;19.578;2022-11-20T00:35:20;49.35;;;47.83;;
38266;SDS011;24063;51.794;19.578;2022-11-20T00:36:22;48.50;;;46.90;;
38266;SDS011;24063;51.794;19.578;2022-11-20T00:37:27;50.15;;;47.94;;
38266;SDS011;24063;51.794;19.578;2022-11-20T00:38:29;49.00;;;46.91;;
38266;SDS011;24063;51.794;19.578;2022-11-20T00:39:31;49.52;;;47.76;;
38266;SDS011;24063;51.794;19.578;2022-11-20T00:40:33;48.23;;;46.94;;
38266;SDS011;24063;51.794;19.578;2022-11-20T00:41:35;47.88;;;46.37;;
38266;SDS011;24063;51.794;19.578;2022-11-20T00:42:41;48.76;;;47.26;;
38266;SDS011;24063;51.794;19.578;2022-11-20T00:43:43;47.37;;;45.44;;
38266;SDS011;24063;51.794;19.578;2022-11-20T00:44:45;46.35;;;44.72;;
38266;SDS011;24063;51.794;19.578;2022-11-20T00:45:47;47.02;;;45.34;;
38266;SDS011;24063;51.794;19.578;2022-11-20T00:46:49;47.83;;;46.04;;
38266;SDS011;24063;51.794;19.578;2022-11-20T00:47:50;49.93;;;47.22;;
38266;SDS011;24063;51.794;19.578;2022-11-20T00:48:52;47.96;;;46.06;;
38266;SDS011;24063;51.794;19.578;2022-11-20T00:49:55;45.93;;;44.35;;
38266;SDS011;24063;51.794;19.578;2022-11-20T00:50:56;44.89;;;43.94;;
38266;SDS011;24063;51.794;19.578;2022-11-20T00:51:59;43.89;;;42.74;;
38266;SDS011;24063;51.794;19.578;2022-11-20T00:53:01;46.50;;;44.66;;
38266;SDS011;24063;51.794;19.578;2022-11-20T00:54:02;48.28;;;46.07;;
38266;SDS011;24063;51.794;19.578;2022-11-20T00:55:05;47.37;;;45.30;;
38266;SDS011;24063;51.794;19.578;2022-11-20T00:56:09;47.05;;;45.47;;
38266;SDS011;24063;51.794;19.578;2022-11-20T00:57:13;46.71;;;45.26;;
38266;SDS011;24063;51.794;19.578;2022-11-20T00:58:15;48.72;;;47.31;;
38266;SDS011;24063;51.794;19.578;2022-11-20T00:59:17;46.99;;;45.33;;
38266;SDS011;24063;51.794;19.578;2022-11-20T01:00:19;45.93;;;44.83;;
38266;SDS011;24063;51.794;19.578;2022-11-20T01:01:22;46.76;;;45.15;;
38266;SDS011;24063;51.794;19.578;2022-11-20T01:02:26;45.39;;;44.14;;
38266;SDS011;24063;51.794;19.578;2022-11-20T01:03:30;45.58;;;44.02;;
38266;SDS011;24063;51.794;19.578;2022-11-20T01:04:36;46.18;;;44.53;;
38266;SDS011;24063;51.794;19.578;2022-11-20T01:05:38;46.09;;;44.79;;
38266;SDS011;24063;51.794;19.578;2022-11-20T01:06:39;44.87;;;43.97;;
38266;SDS011;24063;51.794;19.578;2022-11-20T01:07:41;44.09;;;42.94;;
38266;SDS011;24063;51.794;19.578;2022-11-20T01:08:44;43.87;;;42.36;;
38266;SDS011;24063;51.794;19.578;2022-11-20T01:09:46;45.75;;;44.15;;
38266;SDS011;24063;51.794;19.578;2022-11-20T01:10:48;45.02;;;43.88;;
38266;SDS011;24063;51.794;19.578;2022-11-20T01:11:50;45.35;;;44.21;;
38266;SDS011;24063;51.794;19.578;2022-11-20T01:12:51;47.58;;;45.63;;
38266;SDS011;24063;51.794;19.578;2022-11-20T01:14:15;45.96;;;44.65;;
38266;SDS011;24063;51.794;19.578;2022-11-20T01:15:19;44.56;;;43.37;;
38266;SDS011;24063;51.794;19.578;2022-11-20T01:16:22;45.30;;;43.62;;
38266;SDS011;24063;51.794;19.578;2022-11-20T01:17:24;46.09;;;44.44;;
38266;SDS011;24063;51.794;19.578;2022-11-20T01:18:26;47.25;;;45.52;;
38266;SDS011;24063;51.794;19.578;2022-11-20T01:19:28;45.74;;;44.41;;
38266;SDS011;24063;51.794;19.578;2022-11-20T01:20:30;46.33;;;44.63;;
38266;SDS011;24063;51.794;19.578;2022-11-20T01:21:36;46.35;;;44.52;;
38266;SDS011;24063;51.794;19.578;2022-11-20T01:22:39;45.42;;;44.10;;
38266;SDS011;24063;51.794;19.578;2022-11-20T01:23:42;46.30;;;44.21;;
38266;SDS011;24063;51.794;19.578;2022-11-20T01:24:45;46.37;;;44.32;;
38266;SDS011;24063;51.794;19.578;2022-11-20T01:25:47;47.01;;;45.36;;
38266;SDS011;24063;51.794;19.578;2022-11-20T01:26:49;46.09;;;44.44;;
38266;SDS011;24063;51.794;19.578;2022-11-20T01:27:52;46.58;;;45.17;;
38266;SDS011;24063;51.794;19.578;2022-11-20T01:28:55;45.87;;;44.25;;
38266;SDS011;24063;51.794;19.578;2022-11-20T01:29:58;45.06;;;43.56;;
38266;SDS011;24063;51.794;19.578;2022-11-20T01:31:02;44.30;;;42.87;;
38266;SDS011;24063;51.794;19.578;2022-11-20T01:32:31;45.38;;;43.90;;
38266;SDS011;24063;51.794;19.578;2022-11-20T01:33:33;46.60;;;44.96;;
38266;SDS011;24063;51.794;19.578;2022-11-20T01:34:35;43.85;;;42.75;;
38266;SDS011;24063;51.794;19.578;2022-11-20T01:35:37;45.93;;;44.09;;
38266;SDS011;24063;51.794;19.578;2022-11-20T01:36:39;45.54;;;44.28;;
38266;SDS011;24063;51.794;19.578;2022-11-20T01:37:43;48.19;;;46.51;;
38266;SDS011;24063;51.794;19.578;2022-11-20T01:38:45;47.05;;;45.28;;
38266;SDS011;24063;51.794;19.578;2022-11-20T01:39:47;45.78;;;44.22;;
38266;SDS011;24063;51.794;19.578;2022-11-20T01:40:55;48.33;;;46.61;;
38266;SDS011;24063;51.794;19.578;2022-11-20T01:41:57;47.73;;;46.17;;
38266;SDS011;24063;51.794;19.578;2022-11-20T01:43:18;49.18;;;47.58;;
38266;SDS011;24063;51.794;19.578;2022-11-20T01:46:08;46.75;;;44.94;;
38266;SDS011;24063;51.794;19.578;2022-11-20T01:47:24;46.72;;;45.20;;
38266;SDS011;24063;51.794;19.578;2022-11-20T01:48:44;47.76;;;46.11;;
38266;SDS011;24063;51.794;19.578;2022-11-20T01:49:58;47.66;;;46.38;;
38266;SDS011;24063;51.794;19.578;2022-11-20T01:51:26;47.85;;;46.01;;
38266;SDS011;24063;51.794;19.578;2022-11-20T01:52:42;48.22;;;46.71;;
38266;SDS011;24063;51.794;19.578;2022-11-20T01:53:49;48.33;;;47.23;;
38266;SDS011;24063;51.794;19.578;2022-11-20T01:55:06;48.80;;;46.97;;
38266;SDS011;24063;51.794;19.578;2022-11-20T01:56:30;47.75;;;46.29;;
38266;SDS011;24063;51.794;19.578;2022-11-20T01:57:38;46.57;;;45.55;;
38266;SDS011;24063;51.794;19.578;2022-11-20T01:58:43;48.15;;;47.21;;
38266;SDS011;24063;51.794;19.578;2022-11-20T01:59:56;48.04;;;46.41;;
38266;SDS011;24063;51.794;19.578;2022-11-20T02:01:14;49.83;;;47.44;;
38266;SDS011;24063;51.794;19.578;2022-11-20T02:02:20;47.02;;;45.05;;
38266;SDS011;24063;51.794;19.578;2022-11-20T02:03:22;48.25;;;46.98;;
38266;SDS011;24063;51.794;19.578;2022-11-20T02:04:25;47.65;;;46.46;;
38266;SDS011;24063;51.794;19.578;2022-11-20T02:05:38;48.39;;;46.66;;
38266;SDS011;24063;51.794;19.578;2022-11-20T02:06:48;45.78;;;43.89;;
38266;SDS011;24063;51.794;19.578;2022-11-20T02:07:55;44.84;;;43.11;;
38266;SDS011;24063;51.794;19.578;2022-11-20T02:09:00;46.20;;;44.54;;
38266;SDS011;24063;51.794;19.578;2022-11-20T02:10:02;47.63;;;45.92;;
38266;SDS011;24063;51.794;19.578;2022-11-20T02:11:05;47.64;;;45.85;;
38266;SDS011;24063;51.794;19.578;2022-11-20T02:12:07;46.84;;;45.10;;
38266;SDS011;24063;51.794;19.578;2022-11-20T02:13:29;47.59;;;46.48;;
38266;SDS011;24063;51.794;19.578;2022-11-20T02:14:46;47.14;;;45.67;;
38266;SDS011;24063;51.794;19.578;2022-11-20T02:15:48;46.12;;;44.58;;
38266;SDS011;24063;51.794;19.578;2022-11-20T02:16:51;48.06;;;46.00;;
38266;SDS011;24063;51.794;19.578;2022-11-20T02:17:53;47.26;;;46.08;;
38266;SDS011;24063;51.794;19.578;2022-11-20T02:18:56;48.55;;;46.95;;
38266;SDS011;24063;51.794;19.578;2022-11-20T02:20:01;46.70;;;45.41;;
38266;SDS011;24063;51.794;19.578;2022-11-20T02:21:09;47.61;;;46.05;;
38266;SDS011;24063;51.794;19.578;2022-11-20T02:22:30;50.64;;;48.68;;
38266;SDS011;24063;51.794;19.578;2022-11-20T02:24:26;47.04;;;45.86;;
38266;SDS011;24063;51.794;19.578;2022-11-20T02:25:15;47.41;;;46.51;;
38266;SDS011;24063;51.794;19.578;2022-11-20T02:26:19;48.46;;;47.06;;
38266;SDS011;24063;51.794;19.578;2022-11-20T02:27:24;50.08;;;47.71;;
38266;SDS011;24063;51.794;19.578;2022-11-20T02:28:28;48.52;;;46.85;;
38266;SDS011;24063;51.794;19.578;2022-11-20T02:29:44;47.75;;;45.88;;
38266;SDS011;24063;51.794;19.578;2022-11-20T02:30:57;46.45;;;45.39;;
38266;SDS011;24063;51.794;19.578;2022-11-20T02:31:58;47.40;;;45.74;;
38266;SDS011;24063;51.794;19.578;2022-11-20T02:33:02;48.74;;;46.56;;
38266;SDS011;24063;51.794;19.578;2022-11-20T02:34:05;46.04;;;44.61;;
38266;SDS011;24063;51.794;19.578;2022-11-20T02:36:19;48.85;;;46.40;;
38266;SDS011;24063;51.794;19.578;2022-11-20T02:37:21;45.63;;;43.69;;
38266;SDS011;24063;51.794;19.578;2022-11-20T02:38:24;46.73;;;45.33;;
38266;SDS011;24063;51.794;19.578;2022-11-20T02:39:26;45.86;;;44.38;;
38266;SDS011;24063;51.794;19.578;2022-11-20T02:40:31;47.88;;;45.94;;
38266;SDS011;24063;51.794;19.578;2022-11-20T02:41:36;44.98;;;43.96;;
38266;SDS011;24063;51.794;19.578;2022-11-20T02:42:39;45.68;;;44.49;;
38266;SDS011;24063;51.794;19.578;2022-11-20T02:43:41;45.64;;;44.55;;
38266;SDS011;24063;51.794;19.578;2022-11-20T02:44:44;44.92;;;43.35;;
38266;SDS011;24063;51.794;19.578;2022-11-20T02:45:46;45.31;;;43.93;;
38266;SDS011;24063;51.794;19.578;2022-11-20T02:46:47;45.63;;;44.23;;
38266;SDS011;24063;51.794;19.578;2022-11-20T02:47:49;48.24;;;45.95;;
38266;SDS011;24063;51.794;19.578;2022-11-20T02:48:52;47.03;;;45.50;;
38266;SDS011;24063;51.794;19.578;2022-11-20T02:49:54;44.87;;;43.45;;
38266;SDS011;24063;51.794;19.578;2022-11-20T02:50:56;47.65;;;45.57;;
38266;SDS011;24063;51.794;19.578;2022-11-20T02:51:58;47.10;;;45.11;;
38266;SDS011;24063;51.794;19.578;2022-11-20T02:53:00;45.88;;;44.03;;
38266;SDS011;24063;51.794;19.578;2022-11-20T02:54:01;45.53;;;44.14;;
38266;SDS011;24063;51.794;19.578;2022-11-20T02:55:04;46.05;;;44.99;;
38266;SDS011;24063;51.794;19.578;2022-11-20T02:56:06;46.94;;;45.43;;
38266;SDS011;24063;51.794;19.578;2022-11-20T02:57:08;47.81;;;46.38;;
38266;SDS011;24063;51.794;19.578;2022-11-20T02:58:10;46.92;;;45.50;;
38266;SDS011;24063;51.794;19.578;2022-11-20T02:59:12;49.05;;;47.17;;
38266;SDS011;24063;51.794;19.578;2022-11-20T03:00:14;49.13;;;46.98;;
38266;SDS011;24063;51.794;19.578;2022-11-20T03:01:16;46.88;;;45.33;;
38266;SDS011;24063;51.794;19.578;2022-11-20T03:02:17;47.84;;;46.21;;
38266;SDS011;24063;51.794;19.578;2022-11-20T03:03:19;47.09;;;45.71;;
38266;SDS011;24063;51.794;19.578;2022-11-20T03:04:21;46.77;;;45.52;;
38266;SDS011;24063;51.794;19.578;2022-11-20T03:05:23;45.03;;;44.08;;
38266;SDS011;24063;51.794;19.578;2022-11-20T03:06:25;46.08;;;44.89;;
38266;SDS011;24063;51.794;19.578;2022-11-20T03:07:27;46.71;;;45.27;;
38266;SDS011;24063;51.794;19.578;2022-11-20T03:08:29;46.67;;;45.55;;
38266;SDS011;24063;51.794;19.578;2022-11-20T03:09:31;47.61;;;45.79;;
38266;SDS011;24063;51.794;19.578;2022-11-20T03:10:33;50.79;;;48.69;;
38266;SDS011;24063;51.794;19.578;2022-11-20T03:11:34;49.68;;;47.52;;
38266;SDS011;24063;51.794;19.578;2022-11-20T03:12:36;45.14;;;43.99;;
38266;SDS011;24063;51.794;19.578;2022-11-20T03:13:38;47.55;;;45.45;;
38266;SDS011;24063;51.794;19.578;2022-11-20T03:14:40;46.25;;;44.78;;
38266;SDS011;24063;51.794;19.578;2022-11-20T03:15:53;49.19;;;47.01;;
38266;SDS011;24063;51.794;19.578;2022-11-20T03:16:55;49.15;;;47.19;;
38266;SDS011;24063;51.794;19.578;2022-11-20T03:17:57;47.16;;;45.46;;
38266;SDS011;24063;51.794;19.578;2022-11-20T03:19:02;48.29;;;46.54;;
38266;SDS011;24063;51.794;19.578;2022-11-20T03:20:04;50.10;;;47.61;;
38266;SDS011;24063;51.794;19.578;2022-11-20T03:21:07;49.18;;;47.03;;
38266;SDS011;24063;51.794;19.578;2022-11-20T03:22:11;48.44;;;47.01;;
38266;SDS011;24063;51.794;19.578;2022-11-20T03:23:13;47.84;;;46.08;;
38266;SDS011;24063;51.794;19.578;2022-11-20T03:24:14;48.32;;;46.53;;
38266;SDS011;24063;51.794;19.578;2022-11-20T03:25:16;47.32;;;46.07;;
38266;SDS011;24063;51.794;19.578;2022-11-20T03:26:20;46.17;;;44.42;;
38266;SDS011;24063;51.794;19.578;2022-11-20T03:27:23;49.31;;;47.31;;
38266;SDS011;24063;51.794;19.578;2022-11-20T03:28:25;49.17;;;47.23;;
38266;SDS011;24063;51.794;19.578;2022-11-20T03:29:27;48.24;;;46.21;;
38266;SDS011;24063;51.794;19.578;2022-11-20T03:30:29;46.62;;;45.21;;
38266;SDS011;24063;51.794;19.578;2022-11-20T03:31:36;47.17;;;45.06;;
38266;SDS011;24063;51.794;19.578;2022-11-20T03:32:41;48.09;;;45.59;;
38266;SDS011;24063;51.794;19.578;2022-11-20T03:33:44;46.47;;;44.56;;
38266;SDS011;24063;51.794;19.578;2022-11-20T03:34:45;45.21;;;43.91;;
38266;SDS011;24063;51.794;19.578;2022-11-20T03:35:47;48.46;;;46.54;;
38266;SDS011;24063;51.794;19.578;2022-11-20T03:36:49;49.17;;;46.90;;
38266;SDS011;24063;51.794;19.578;2022-11-20T03:37:51;47.21;;;45.70;;
38266;SDS011;24063;51.794;19.578;2022-11-20T03:38:53;48.07;;;46.82;;
38266;SDS011;24063;51.794;19.578;2022-11-20T03:39:56;47.67;;;46.22;;
38266;SDS011;24063;51.794;19.578;2022-11-20T03:40:59;47.38;;;46.27;;
38266;SDS011;24063;51.794;19.578;2022-11-20T03:42:05;49.86;;;48.43;;
38266;SDS011;24063;51.794;19.578;2022-11-20T03:43:27;48.92;;;47.53;;
38266;SDS011;24063;51.794;19.578;2022-11-20T03:44:29;50.54;;;49.15;;
38266;SDS011;24063;51.794;19.578;2022-11-20T03:45:31;50.33;;;47.91;;
38266;SDS011;24063;51.794;19.578;2022-11-20T03:46:33;51.68;;;49.63;;
38266;SDS011;24063;51.794;19.578;2022-11-20T03:47:35;50.95;;;48.51;;
38266;SDS011;24063;51.794;19.578;2022-11-20T03:48:37;51.60;;;48.49;;
38266;SDS011;24063;51.794;19.578;2022-11-20T03:49:39;49.05;;;46.99;;
38266;SDS011;24063;51.794;19.578;2022-11-20T03:50:40;48.07;;;46.02;;
38266;SDS011;24063;51.794;19.578;2022-11-20T03:51:42;49.76;;;47.92;;
38266;SDS011;24063;51.794;19.578;2022-11-20T03:52:44;49.25;;;47.33;;
38266;SDS011;24063;51.794;19.578;2022-11-20T03:53:46;49.37;;;46.96;;
38266;SDS011;24063;51.794;19.578;2022-11-20T03:54:49;50.81;;;48.40;;
38266;SDS011;24063;51.794;19.578;2022-11-20T03:55:51;51.45;;;48.87;;
38266;SDS011;24063;51.794;19.578;2022-11-20T03:56:53;49.54;;;47.56;;
38266;SDS011;24063;51.794;19.578;2022-11-20T03:57:54;49.24;;;47.70;;
38266;SDS011;24063;51.794;19.578;2022-11-20T03:58:56;48.60;;;46.69;;
38266;SDS011;24063;51.794;19.578;2022-11-20T03:59:59;50.40;;;47.91;;
38266;SDS011;24063;51.794;19.578;2022-11-20T04:01:05;50.49;;;47.76;;
38266;SDS011;24063;51.794;19.578;2022-11-20T04:02:11;49.35;;;47.24;;
38266;SDS011;24063;51.794;19.578;2022-11-20T04:03:13;48.09;;;46.65;;
38266;SDS011;24063;51.794;19.578;2022-11-20T04:04:15;46.91;;;45.75;;
38266;SDS011;24063;51.794;19.578;2022-11-20T04:05:17;50.26;;;47.86;;
38266;SDS011;24063;51.794;19.578;2022-11-20T04:06:20;49.74;;;47.94;;
38266;SDS011;24063;51.794;19.578;2022-11-20T04:07:27;49.62;;;47.61;;
38266;SDS011;24063;51.794;19.578;2022-11-20T04:08:29;48.52;;;46.34;;
38266;SDS011;24063;51.794;19.578;2022-11-20T04:09:32;47.88;;;46.21;;
38266;SDS011;24063;51.794;19.578;2022-11-20T04:10:34;50.53;;;48.58;;
38266;SDS011;24063;51.794;19.578;2022-11-20T04:11:36;47.23;;;45.95;;
38266;SDS011;24063;51.794;19.578;2022-11-20T04:12:41;47.36;;;45.60;;
38266;SDS011;24063;51.794;19.578;2022-11-20T04:13:45;49.21;;;46.63;;
38266;SDS011;24063;51.794;19.578;2022-11-20T04:14:49;47.61;;;45.63;;
38266;SDS011;24063;51.794;19.578;2022-11-20T04:15:51;47.79;;;45.90;;
38266;SDS011;24063;51.794;19.578;2022-11-20T04:16:59;48.29;;;45.99;;
38266;SDS011;24063;51.794;19.578;2022-11-20T04:18:00;49.48;;;47.04;;
38266;SDS011;24063;51.794;19.578;2022-11-20T04:19:03;46.56;;;45.28;;
38266;SDS011;24063;51.794;19.578;2022-11-20T04:20:07;46.40;;;44.93;;
38266;SDS011;24063;51.794;19.578;2022-11-20T04:21:09;48.05;;;46.73;;
38266;SDS011;24063;51.794;19.578;2022-11-20T04:22:12;47.25;;;45.82;;
38266;SDS011;24063;51.794;19.578;2022-11-20T04:23:14;48.17;;;46.29;;
38266;SDS011;24063;51.794;19.578;2022-11-20T04:24:16;48.60;;;46.25;;
38266;SDS011;24063;51.794;19.578;2022-11-20T04:25:18;47.84;;;45.78;;
38266;SDS011;24063;51.794;19.578;2022-11-20T04:26:20;48.98;;;46.81;;
38266;SDS011;24063;51.794;19.578;2022-11-20T04:27:24;50.11;;;48.66;;
38266;SDS011;24063;51.794;19.578;2022-11-20T04:28:26;48.78;;;47.11;;
38266;SDS011;24063;51.794;19.578;2022-11-20T04:29:28;48.74;;;47.27;;
38266;SDS011;24063;51.794;19.578;2022-11-20T04:30:30;47.85;;;46.21;;
38266;SDS011;24063;51.794;19.578;2022-11-20T04:31:33;48.97;;;47.58;;
38266;SDS011;24063;51.794;19.578;2022-11-20T04:32:35;48.01;;;46.62;;
38266;SDS011;24063;51.794;19.578;2022-11-20T04:33:38;49.28;;;47.66;;
38266;SDS011;24063;51.794;19.578;2022-11-20T04:34:41;48.66;;;47.04;;
38266;SDS011;24063;51.794;19.578;2022-11-20T04:35:42;47.25;;;45.57;;
38266;SDS011;24063;51.794;19.578;2022-11-20T04:36:49;48.35;;;46.24;;
38266;SDS011;24063;51.794;19.578;2022-11-20T04:37:51;46.99;;;45.75;;
38266;SDS011;24063;51.794;19.578;2022-11-20T04:38:54;44.95;;;43.70;;
38266;SDS011;24063;51.794;19.578;2022-11-20T04:39:58;47.76;;;46.09;;
38266;SDS011;24063;51.794;19.578;2022-11-20T04:41:00;46.78;;;45.40;;
38266;SDS011;24063;51.794;19.578;2022-11-20T04:42:04;46.98;;;45.29;;
38266;SDS011;24063;51.794;19.578;2022-11-20T04:43:24;48.71;;;46.78;;
38266;SDS011;24063;51.794;19.578;2022-11-20T04:44:26;48.59;;;46.68;;
38266;SDS011;24063;51.794;19.578;2022-11-20T04:45:28;48.59;;;47.21;;
38266;SDS011;24063;51.794;19.578;2022-11-20T04:46:39;49.66;;;48.04;;
38266;SDS011;24063;51.794;19.578;2022-11-20T04:47:43;51.64;;;49.22;;
38266;SDS011;24063;51.794;19.578;2022-11-20T04:48:45;50.73;;;48.50;;
38266;SDS011;24063;51.794;19.578;2022-11-20T04:49:47;50.86;;;49.12;;
38266;SDS011;24063;51.794;19.578;2022-11-20T04:50:49;49.70;;;48.10;;
38266;SDS011;24063;51.794;19.578;2022-11-20T04:51:54;49.69;;;47.71;;
38266;SDS011;24063;51.794;19.578;2022-11-20T04:52:56;49.97;;;48.03;;
38266;SDS011;24063;51.794;19.578;2022-11-20T04:53:58;51.05;;;49.03;;
38266;SDS011;24063;51.794;19.578;2022-11-20T04:54:59;53.09;;;50.56;;
38266;SDS011;24063;51.794;19.578;2022-11-20T04:56:02;53.91;;;51.06;;
38266;SDS011;24063;51.794;19.578;2022-11-20T04:57:06;56.64;;;53.29;;
38266;SDS011;24063;51.794;19.578;2022-11-20T04:58:14;54.02;;;51.55;;
38266;SDS011;24063;51.794;19.578;2022-11-20T04:59:17;53.93;;;51.91;;
38266;SDS011;24063;51.794;19.578;2022-11-20T05:00:19;54.18;;;52.18;;
38266;SDS011;24063;51.794;19.578;2022-11-20T05:01:22;52.86;;;50.86;;
38266;SDS011;24063;51.794;19.578;2022-11-20T05:02:25;54.36;;;51.95;;
38266;SDS011;24063;51.794;19.578;2022-11-20T05:03:27;50.94;;;49.15;;
38266;SDS011;24063;51.794;19.578;2022-11-20T05:04:29;51.67;;;49.89;;
38266;SDS011;24063;51.794;19.578;2022-11-20T05:05:31;51.56;;;49.65;;
38266;SDS011;24063;51.794;19.578;2022-11-20T05:06:35;51.37;;;49.52;;
38266;SDS011;24063;51.794;19.578;2022-11-20T05:07:37;53.80;;;50.41;;
38266;SDS011;24063;51.794;19.578;2022-11-20T05:08:39;52.46;;;49.64;;
38266;SDS011;24063;51.794;19.578;2022-11-20T05:09:41;52.15;;;49.84;;
38266;SDS011;24063;51.794;19.578;2022-11-20T05:10:43;51.97;;;50.12;;
38266;SDS011;24063;51.794;19.578;2022-11-20T05:11:45;49.20;;;47.50;;
38266;SDS011;24063;51.794;19.578;2022-11-20T05:12:52;52.54;;;50.43;;
38266;SDS011;24063;51.794;19.578;2022-11-20T05:13:55;53.01;;;50.96;;
38266;SDS011;24063;51.794;19.578;2022-11-20T05:14:56;52.70;;;50.96;;
38266;SDS011;24063;51.794;19.578;2022-11-20T05:16:02;53.04;;;51.31;;
38266;SDS011;24063;51.794;19.578;2022-11-20T05:17:06;51.08;;;50.26;;
38266;SDS011;24063;51.794;19.578;2022-11-20T05:18:11;53.83;;;52.99;;
38266;SDS011;24063;51.794;19.578;2022-11-20T05:19:13;60.41;;;58.96;;
38266;SDS011;24063;51.794;19.578;2022-11-20T05:20:15;62.80;;;61.60;;
38266;SDS011;24063;51.794;19.578;2022-11-20T05:21:17;62.24;;;61.18;;
38266;SDS011;24063;51.794;19.578;2022-11-20T05:22:19;55.43;;;54.44;;
38266;SDS011;24063;51.794;19.578;2022-11-20T05:23:21;53.59;;;52.20;;
38266;SDS011;24063;51.794;19.578;2022-11-20T05:24:23;54.62;;;53.15;;
38266;SDS011;24063;51.794;19.578;2022-11-20T05:25:25;54.70;;;53.33;;
38266;SDS011;24063;51.794;19.578;2022-11-20T05:26:27;57.38;;;55.01;;
38266;SDS011;24063;51.794;19.578;2022-11-20T05:27:29;52.63;;;50.89;;
38266;SDS011;24063;51.794;19.578;2022-11-20T05:28:31;49.76;;;48.21;;
38266;SDS011;24063;51.794;19.578;2022-11-20T05:29:33;52.12;;;49.84;;
38266;SDS011;24063;51.794;19.578;2022-11-20T05:30:35;51.80;;;49.19;;
38266;SDS011;24063;51.794;19.578;2022-11-20T05:31:38;53.40;;;50.69;;
38266;SDS011;24063;51.794;19.578;2022-11-20T05:32:42;57.01;;;54.51;;
38266;SDS011;24063;51.794;19.578;2022-11-20T05:33:44;54.82;;;52.77;;
38266;SDS011;24063;51.794;19.578;2022-11-20T05:34:47;54.61;;;53.20;;
38266;SDS011;24063;51.794;19.578;2022-11-20T05:35:49;57.64;;;55.42;;
38266;SDS011;24063;51.794;19.578;2022-11-20T05:36:50;59.64;;;57.12;;
38266;SDS011;24063;51.794;19.578;2022-11-20T05:37:52;61.86;;;58.62;;
38266;SDS011;24063;51.794;19.578;2022-11-20T05:38:54;65.10;;;61.83;;
38266;SDS011;24063;51.794;19.578;2022-11-20T05:40:02;74.89;;;71.57;;
38266;SDS011;24063;51.794;19.578;2022-11-20T05:41:05;69.64;;;65.73;;
38266;SDS011;24063;51.794;19.578;2022-11-20T05:42:09;63.76;;;60.41;;
38266;SDS011;24063;51.794;19.578;2022-11-20T05:43:31;63.95;;;60.02;;
38266;SDS011;24063;51.794;19.578;2022-11-20T05:44:35;64.27;;;60.96;;
38266;SDS011;24063;51.794;19.578;2022-11-20T05:45:37;72.13;;;67.40;;
38266;SDS011;24063;51.794;19.578;2022-11-20T05:46:38;75.79;;;69.17;;
38266;SDS011;24063;51.794;19.578;2022-11-20T05:47:40;91.99;;;80.69;;
38266;SDS011;24063;51.794;19.578;2022-11-20T05:48:42;137.36;;;115.11;;
38266;SDS011;24063;51.794;19.578;2022-11-20T05:49:45;125.68;;;106.53;;
38266;SDS011;24063;51.794;19.578;2022-11-20T05:50:47;100.27;;;87.11;;
38266;SDS011;24063;51.794;19.578;2022-11-20T05:51:49;93.55;;;82.27;;
38266;SDS011;24063;51.794;19.578;2022-11-20T05:52:51;107.06;;;90.68;;
38266;SDS011;24063;51.794;19.578;2022-11-20T05:53:53;90.64;;;79.96;;
38266;SDS011;24063;51.794;19.578;2022-11-20T05:54:58;112.26;;;97.77;;
38266;SDS011;24063;51.794;19.578;2022-11-20T05:56:01;100.23;;;88.02;;
38266;SDS011;24063;51.794;19.578;2022-11-20T05:57:06;101.88;;;88.92;;
38266;SDS011;24063;51.794;19.578;2022-11-20T05:58:08;101.31;;;87.05;;
38266;SDS011;24063;51.794;19.578;2022-11-20T05:59:10;89.07;;;79.34;;
38266;SDS011;24063;51.794;19.578;2022-11-20T06:00:12;80.19;;;72.48;;
38266;SDS011;24063;51.794;19.578;2022-11-20T06:01:16;70.08;;;65.04;;
38266;SDS011;24063;51.794;19.578;2022-11-20T06:02:22;88.53;;;79.07;;
38266;SDS011;24063;51.794;19.578;2022-11-20T06:03:24;79.77;;;70.45;;
38266;SDS011;24063;51.794;19.578;2022-11-20T06:04:26;64.65;;;60.00;;
38266;SDS011;24063;51.794;19.578;2022-11-20T06:05:28;57.96;;;54.73;;
38266;SDS011;24063;51.794;19.578;2022-11-20T06:06:30;58.42;;;54.10;;
38266;SDS011;24063;51.794;19.578;2022-11-20T06:07:31;56.85;;;53.64;;
38266;SDS011;24063;51.794;19.578;2022-11-20T06:08:33;56.19;;;53.32;;
38266;SDS011;24063;51.794;19.578;2022-11-20T06:09:35;57.06;;;53.75;;
38266;SDS011;24063;51.794;19.578;2022-11-20T06:10:37;71.84;;;65.83;;
38266;SDS011;24063;51.794;19.578;2022-11-20T06:11:39;78.30;;;69.93;;